Time;durP1;ratioP1;P1;durP2;ratioP2;P2;SDS_P1;SDS_P2;PMS_P1;PMS_P2;Temp;Humidity;BMP_temperature;BMP_pressure;BME280_temperature;BME280_humidity;BME280_pressure;Samples;Min_cycle;Max_cycle;Signal;HPM_P1;HPM_P2
2021/07/27 00:00:08;;;;;;;41.08;22.92;;;;;;;16.66;86.71;101264.25;5074247;28;20031;-72
2021/07/27 00:02:33;;;;;;;49.70;24.83;;;;;;;16.73;86.23;101272.72;5072861;28;20020;-65
2021/07/27 00:04:58;;;;;;;42.33;23.80;;;;;;;16.74;86.04;101270.91;5073914;28;20035;-65
2021/07/27 00:07:23;;;;;;;42.13;24.42;;;;;;;16.79;86.02;101268.78;5073603;28;20029;-66
2021/07/27 00:09:49;;;;;;;45.05;24.58;;;;;;;16.82;85.74;101256.09;5073758;28;20035;-66
2021/07/27 00:12:14;;;;;;;41.20;24.20;;;;;;;16.81;85.94;101265.06;5073838;28;20101;-66
2021/07/27 00:14:39;;;;;;;49.03;25.90;;;;;;;16.76;86.20;101259.16;5055908;28;20390;-66
2021/07/27 00:17:05;;;;;;;48.47;25.15;;;;;;;16.77;85.55;101252.84;5073220;28;20021;-66
2021/07/27 00:19:31;;;;;;;43.33;26.30;;;;;;;16.74;85.78;101254.84;5073757;28;20043;-65
2021/07/27 00:21:56;;;;;;;45.40;26.13;;;;;;;16.71;85.91;101256.78;5073896;28;20042;-71
2021/07/27 00:24:26;;;;;;;49.92;27.15;;;;;;;16.69;85.96;101250.66;5073643;28;20467;-72
2021/07/27 00:26:51;;;;;;;49.58;26.55;;;;;;;16.60;86.70;101247.72;5073044;28;20124;-66
2021/07/27 00:29:16;;;;;;;45.10;27.27;;;;;;;16.57;86.59;101256.78;5073538;28;20478;-70
2021/07/27 00:31:41;;;;;;;51.65;27.05;;;;;;;16.53;86.86;101249.94;5054762;28;20037;-65
2021/07/27 00:34:07;;;;;;;51.67;26.80;;;;;;;16.47;86.93;101247.63;5073665;28;20028;-72
2021/07/27 00:36:32;;;;;;;55.10;28.98;;;;;;;16.44;87.11;101253.19;5073624;28;20070;-67
2021/07/27 00:38:58;;;;;;;50.92;27.10;;;;;;;16.41;87.44;101256.03;5072971;28;20025;-68
2021/07/27 00:41:23;;;;;;;52.40;28.42;;;;;;;16.34;87.45;101250.22;5073363;28;20059;-66
2021/07/27 00:43:48;;;;;;;55.58;29.50;;;;;;;16.30;87.54;101254.06;5072947;28;20020;-71
2021/07/27 00:46:14;;;;;;;52.08;29.15;;;;;;;16.25;87.86;101251.66;5072938;28;20049;-69
2021/07/27 00:48:39;;;;;;;57.72;29.75;;;;;;;16.19;87.92;101242.22;5072483;28;20025;-66
2021/07/27 00:51:04;;;;;;;54.45;29.45;;;;;;;16.18;88.16;101236.97;5073244;28;20040;-66
2021/07/27 00:53:30;;;;;;;57.45;29.13;;;;;;;16.15;88.27;101235.38;5073159;28;20056;-66
2021/07/27 00:55:55;;;;;;;54.28;28.38;;;;;;;16.12;88.38;101232.88;5072690;28;20495;-69
2021/07/27 00:58:21;;;;;;;59.63;29.88;;;;;;;16.07;88.60;101231.44;5072259;28;20032;-66
2021/07/27 01:00:47;;;;;;;53.70;25.75;;;;;;;16.04;88.79;101237.84;5073278;28;20547;-66
2021/07/27 01:03:14;;;;;;;52.30;28.52;;;;;;;16.01;88.74;101228.19;5072961;28;20109;-66
2021/07/27 01:05:39;;;;;;;54.35;27.38;;;;;;;15.98;88.51;101238.19;5072580;28;20474;-71
2021/07/27 01:08:05;;;;;;;51.45;25.35;;;;;;;15.99;89.14;101231.91;5072627;28;20047;-66
2021/07/27 01:10:30;;;;;;;53.65;26.90;;;;;;;15.97;88.94;101233.81;5073087;28;20406;-66
2021/07/27 01:12:56;;;;;;;55.75;28.63;;;;;;;15.93;89.08;101230.47;5072239;28;20032;-72
2021/07/27 01:15:23;;;;;;;52.40;27.80;;;;;;;15.91;88.79;101228.84;5072576;28;20059;-71
2021/07/27 01:17:48;;;;;;;58.70;28.98;;;;;;;15.87;89.21;101223.69;5072286;28;20032;-66
2021/07/27 01:20:23;;;;;;;68.15;32.90;;;;;;;15.89;89.42;101226.25;5072370;28;20078;-73
2021/07/27 01:39:24;;;;;;;71.60;31.67;;;;;;;15.92;90.32;101211.88;5072053;28;20555;-73
2021/07/27 01:42:11;;;;;;;83.72;36.15;;;;;;;15.94;90.19;101215.31;5072150;28;20093;-70
2021/07/27 01:44:49;;;;;;;77.82;34.92;;;;;;;15.95;90.00;101211.69;5072032;28;20431;-69
2021/07/27 01:47:21;;;;;;;78.60;34.80;;;;;;;15.92;90.25;101204.72;5072247;28;20048;-66
2021/07/27 01:49:48;;;;;;;83.95;35.78;;;;;;;15.92;90.03;101202.06;5071814;28;20033;-66
2021/07/27 01:52:14;;;;;;;86.57;35.75;;;;;;;15.91;90.12;101199.47;5070731;28;20040;-72
2021/07/27 01:54:46;;;;;;;94.05;38.90;;;;;;;15.88;90.52;101201.38;5072003;28;20025;-66
2021/07/27 01:57:14;;;;;;;;;;;;;;;15.90;90.50;101198.63;5072767;28;20103;-72
2021/07/27 01:59:40;;;;;;;92.32;36.65;;;;;;;15.95;90.72;101209.03;5071620;28;19916;-70
2021/07/27 02:02:06;;;;;;;90.90;36.22;;;;;;;15.95;90.18;101203.69;5071361;28;20025;-66
2021/07/27 02:04:32;;;;;;;105.72;41.38;;;;;;;15.96;90.54;101200.91;5072055;28;20033;-66
2021/07/27 02:06:57;;;;;;;94.60;38.70;;;;;;;15.95;90.58;101193.00;5072143;28;20035;-71
2021/07/27 02:09:23;;;;;;;95.50;38.63;;;;;;;15.96;90.92;101206.25;5071863;28;20032;-72
2021/07/27 02:11:53;;;;;;;100.90;37.13;;;;;;;15.94;90.94;101194.78;5071672;28;20033;-65
2021/07/27 02:14:18;;;;;;;100.88;38.55;;;;;;;15.98;90.51;101200.81;5072172;28;20032;-65
2021/07/27 02:16:44;;;;;;;103.43;39.45;;;;;;;16.01;90.65;101201.47;5071942;28;20103;-72
2021/07/27 02:19:09;;;;;;;102.57;38.88;;;;;;;16.01;90.99;101192.59;5072033;28;20029;-68
2021/07/27 02:21:34;;;;;;;113.35;41.72;;;;;;;16.04;90.50;101197.75;5071042;28;20017;-66
2021/07/27 02:24:01;;;;;;;98.30;38.80;;;;;;;16.05;90.72;101197.66;5071850;28;20031;-71
2021/07/27 02:26:27;;;;;;;97.35;39.53;;;;;;;16.04;90.46;101190.59;5074523;28;20024;-68
2021/07/27 02:28:52;;;;;;;96.03;38.88;;;;;;;16.03;90.32;101193.38;5075823;28;20460;-72
2021/07/27 02:31:32;;;;;;;106.03;40.35;;;;;;;16.00;90.44;101198.91;5075557;28;20071;-65
2021/07/27 02:33:58;;;;;;;109.80;41.83;;;;;;;16.00;90.73;101202.44;5074980;28;20480;-65
2021/07/27 02:36:23;;;;;;;107.32;40.28;;;;;;;16.00;90.67;101197.09;5075525;28;20032;-73
2021/07/27 02:38:49;;;;;;;102.25;39.60;;;;;;;15.97;90.76;101197.28;5075535;28;20528;-72
2021/07/27 02:41:20;;;;;;;116.03;41.90;;;;;;;15.95;91.08;101195.66;5075272;28;20032;-66
2021/07/27 02:43:45;;;;;;;112.07;42.20;;;;;;;15.94;90.84;101201.97;5075260;28;20025;-67
2021/07/27 02:46:10;;;;;;;99.82;39.90;;;;;;;15.93;90.89;101206.44;5075353;28;20448;-66
2021/07/27 02:48:36;;;;;;;100.45;37.70;;;;;;;15.91;90.97;101205.69;5075486;28;20046;-67
2021/07/27 02:51:01;;;;;;;107.63;41.47;;;;;;;15.87;91.27;101205.00;5075418;28;20028;-70
2021/07/27 02:53:30;;;;;;;115.80;40.97;;;;;;;15.84;91.38;101198.97;5074629;28;20025;-65
2021/07/27 02:56:02;;;;;;;106.88;41.08;;;;;;;15.81;91.34;101202.69;5075621;28;20064;-72
2021/07/27 02:58:29;;;;;;;112.32;42.20;;;;;;;15.78;91.04;101193.97;5074996;28;20025;-67
2021/07/27 03:00:55;;;;;;;118.07;43.38;;;;;;;15.73;91.08;101191.63;5075209;28;20033;-67
2021/07/27 03:03:20;;;;;;;116.75;44.50;;;;;;;15.70;91.24;101190.00;5074913;28;20116;-66
2021/07/27 03:05:45;;;;;;;101.97;40.20;;;;;;;15.68;91.17;101194.56;5075442;28;20020;-69
2021/07/27 03:08:21;;;;;;;104.80;41.00;;;;;;;15.64;91.59;101189.47;5074987;28;20470;-66
2021/07/27 03:10:46;;;;;;;103.75;40.53;;;;;;;15.65;91.37;101183.19;5074736;28;20028;-65
2021/07/27 03:13:11;;;;;;;102.63;39.42;;;;;;;15.63;91.54;101179.78;5074688;28;20035;-66
2021/07/27 03:15:37;;;;;;;100.80;40.35;;;;;;;15.65;91.15;101167.19;5075114;28;20099;-69
2021/07/27 03:18:02;;;;;;;85.85;36.60;;;;;;;15.63;90.66;101177.09;5075073;28;20036;-65
2021/07/27 03:20:28;;;;;;;87.47;36.83;;;;;;;15.64;90.84;101170.78;5074340;28;20040;-71
2021/07/27 03:22:55;;;;;;;75.45;35.50;;;;;;;15.62;90.34;101173.56;5074758;28;20024;-71
2021/07/27 03:25:21;;;;;;;74.00;35.80;;;;;;;15.61;90.38;101173.66;5074422;28;20028;-66
2021/07/27 03:27:49;;;;;;;67.65;32.80;;;;;;;15.60;90.29;101170.16;5074822;28;20493;-65
2021/07/27 03:30:16;;;;;;;70.75;32.15;;;;;;;15.60;90.59;101172.81;5074721;28;20070;-72
2021/07/27 03:32:42;;;;;;;77.53;34.72;;;;;;;15.55;90.35;101164.22;5073969;28;20025;-73
2021/07/27 03:35:08;;;;;;;74.15;35.25;;;;;;;15.51;90.30;101168.00;5074361;28;20102;-70
2021/07/27 03:37:33;;;;;;;75.53;35.05;;;;;;;15.50;90.24;101166.28;5074899;28;20072;-70
2021/07/27 03:39:59;;;;;;;78.82;34.75;;;;;;;15.52;90.49;101172.41;5074707;28;20496;-65
2021/07/27 03:42:25;;;;;;;83.53;35.55;;;;;;;15.51;90.37;101166.22;5074087;28;20035;-72
2021/07/27 03:44:55;;;;;;;74.50;35.42;;;;;;;15.53;90.63;101160.78;5074226;28;20413;-66
2021/07/27 03:47:20;;;;;;;77.72;35.90;;;;;;;15.54;90.93;101163.34;5073906;28;20048;-65
2021/07/27 03:49:45;;;;;;;79.85;36.75;;;;;;;15.58;90.61;101169.38;5074436;28;20041;-72
2021/07/27 03:52:11;;;;;;;72.10;35.65;;;;;;;15.62;90.46;101178.91;5073828;28;20104;-71
2021/07/27 03:54:36;;;;;;;73.00;36.28;;;;;;;15.73;90.46;101178.28;5074322;28;20028;-67
2021/07/27 03:57:03;;;;;;;79.05;38.10;;;;;;;15.82;90.61;101190.19;5073905;28;20020;-71
2021/07/27 03:59:33;;;;;;;81.38;36.55;;;;;;;15.93;90.46;101184.22;5073630;28;20490;-68
2021/07/27 04:01:58;;;;;;;74.15;36.25;;;;;;;15.96;90.05;101187.56;5073950;28;20214;-66
2021/07/27 04:04:24;;;;;;;80.22;37.55;;;;;;;16.02;89.57;101186.31;5073444;28;20028;-72
2021/07/27 04:06:49;;;;;;;73.60;33.88;;;;;;;16.07;89.19;101184.19;5073464;28;20036;-66
2021/07/27 04:09:15;;;;;;;66.68;35.75;;;;;;;16.08;89.19;101185.09;5074104;28;20028;-65
2021/07/27 04:11:41;;;;;;;78.18;36.63;;;;;;;16.04;89.25;101177.25;5073693;28;20107;-68
2021/07/27 04:14:07;;;;;;;70.05;35.05;;;;;;;16.04;89.00;101187.91;5073551;28;20025;-68
2021/07/27 04:16:33;;;;;;;68.05;35.33;;;;;;;16.07;88.44;101184.19;5073702;28;20545;-65
2021/07/27 04:18:58;;;;;;;60.10;31.92;;;;;;;16.12;88.64;101178.59;5073387;28;20126;-66
2021/07/27 04:21:24;;;;;;;61.80;34.85;;;;;;;16.15;88.40;101179.25;5073710;28;20074;-71
2021/07/27 04:23:50;;;;;;;61.17;31.90;;;;;;;16.18;87.79;101181.72;5073262;28;20090;-66
2021/07/27 04:26:15;;;;;;;61.33;33.50;;;;;;;16.24;87.41;101169.81;5073581;28;20020;-71
2021/07/27 04:28:41;;;;;;;66.63;34.15;;;;;;;16.24;87.33;101169.81;5073377;28;20028;-72
2021/07/27 04:31:07;;;;;;;58.63;33.33;;;;;;;16.30;87.27;101171.22;5073621;28;20039;-65
2021/07/27 04:33:32;;;;;;;57.38;32.88;;;;;;;16.32;86.50;101170.16;5073232;28;20024;-67
2021/07/27 04:35:57;;;;;;;58.63;32.40;;;;;;;16.35;86.32;101169.94;5073437;28;20108;-66
2021/07/27 04:38:23;;;;;;;55.60;33.45;;;;;;;16.38;85.63;101172.44;5053279;28;20284;-66
2021/07/27 04:40:54;;;;;;;51.63;31.73;;;;;;;16.43;84.94;101169.44;5073276;28;20036;-68
2021/07/27 04:43:20;;;;;;;50.55;30.15;;;;;;;16.43;84.41;101164.09;5073191;28;20509;-69
2021/07/27 04:45:45;;;;;;;48.97;31.88;;;;;;;16.41;84.13;101170.50;5072780;28;20032;-68
2021/07/27 04:48:11;;;;;;;47.30;30.52;;;;;;;16.44;83.75;101171.19;5072460;28;20020;-66
2021/07/27 04:50:37;;;;;;;49.30;31.65;;;;;;;16.44;83.95;101184.53;5072710;28;20044;-66
2021/07/27 04:53:08;;;;;;;47.78;30.85;;;;;;;16.45;83.46;101180.91;5072950;28;20389;-66
2021/07/27 04:55:34;;;;;;;46.33;30.55;;;;;;;16.50;83.74;101173.47;5080001;28;20039;-66
2021/07/27 04:58:02;;;;;;;46.67;29.23;;;;;;;16.54;83.78;101180.31;5093467;28;20054;-67
2021/07/27 05:00:27;;;;;;;49.47;28.70;;;;;;;16.53;83.57;101170.59;5082048;28;20058;-68
2021/07/27 05:02:52;;;;;;;42.42;28.88;;;;;;;16.59;83.50;101172.00;5072505;28;20474;-66
2021/07/27 05:05:18;;;;;;;41.92;28.38;;;;;;;16.63;82.93;101172.69;5072323;28;20025;-69
2021/07/27 05:07:45;;;;;;;42.55;27.00;;;;;;;16.70;82.86;101165.94;5072655;28;20478;-66
2021/07/27 05:10:11;;;;;;;46.78;28.63;;;;;;;16.73;82.53;101168.44;5072353;28;20043;-72
2021/07/27 05:12:37;;;;;;;46.38;30.15;;;;;;;16.75;82.46;101169.19;5072671;28;20021;-73
2021/07/27 05:15:06;;;;;;;40.35;28.75;;;;;;;16.82;82.52;101167.81;5072836;28;20050;-71
2021/07/27 05:17:32;;;;;;;44.53;29.95;;;;;;;16.87;82.01;101156.84;5071697;28;20031;-69
2021/07/27 05:19:58;;;;;;;51.42;32.17;;;;;;;16.94;82.05;101152.81;5072212;28;20387;-68
2021/07/27 05:22:23;;;;;;;48.80;32.03;;;;;;;16.98;81.76;101150.78;5071628;28;20032;-66
2021/07/27 05:24:53;;;;;;;45.20;31.67;;;;;;;17.07;81.68;101157.34;5072400;28;20031;-66
2021/07/27 05:27:21;;;;;;;47.05;31.35;;;;;;;17.13;81.20;101148.91;5071729;28;20478;-72
2021/07/27 05:29:51;;;;;;;47.25;32.95;;;;;;;17.11;80.30;101150.81;5072455;28;20035;-66
2021/07/27 05:32:17;;;;;;;48.00;32.85;;;;;;;17.09;80.39;101160.78;5071633;28;20036;-72
2021/07/27 05:34:42;;;;;;;47.92;33.97;;;;;;;17.10;80.71;101158.00;5072109;28;20378;-73
2021/07/27 05:37:07;;;;;;;50.70;35.25;;;;;;;17.10;80.76;101160.66;5071954;28;20129;-70
2021/07/27 05:39:33;;;;;;;51.88;34.08;;;;;;;17.07;80.62;101158.19;5072152;28;20033;-66
2021/07/27 05:41:58;;;;;;;45.95;32.58;;;;;;;17.06;79.54;101150.28;5071623;28;20028;-66
2021/07/27 05:44:25;;;;;;;47.03;33.35;;;;;;;17.07;80.07;101157.34;5072316;28;20025;-66
2021/07/27 05:46:54;;;;;;;49.50;33.75;;;;;;;17.11;79.23;101158.84;5065547;28;20041;-72
2021/07/27 05:49:21;;;;;;;49.08;33.40;;;;;;;17.15;78.73;101155.03;5052236;28;20017;-65
2021/07/27 05:51:47;;;;;;;48.65;31.30;;;;;;;17.15;79.00;101166.56;5051808;28;20517;-72
2021/07/27 05:54:12;;;;;;;45.22;30.70;;;;;;;17.13;79.72;101163.13;5051825;28;20105;-72
2021/07/27 05:56:38;;;;;;;38.55;26.95;;;;;;;17.20;78.75;101160.91;5051996;28;20052;-66
2021/07/27 05:59:03;;;;;;;37.63;25.00;;;;;;;17.27;78.84;101161.34;5051619;28;20068;-66
2021/07/27 06:01:29;;;;;;;33.70;21.20;;;;;;;17.30;78.50;101164.69;5054863;28;20099;-69
2021/07/27 06:03:55;;;;;;;32.33;19.80;;;;;;;17.31;78.33;101160.19;5055727;28;20027;-68
2021/07/27 06:06:21;;;;;;;27.00;19.25;;;;;;;17.29;77.82;101164.75;5055308;28;20433;-65
2021/07/27 06:08:46;;;;;;;27.05;19.13;;;;;;;17.28;77.83;101155.88;5055346;28;20093;-71
2021/07/27 06:11:13;;;;;;;29.38;19.10;;;;;;;17.28;78.31;101160.41;5056134;28;20025;-70
2021/07/27 06:13:39;;;;;;;26.13;17.90;;;;;;;17.31;78.00;101163.69;5055876;28;20471;-67
2021/07/27 06:16:05;;;;;;;27.17;17.42;;;;;;;17.39;77.74;101167.69;5055588;28;20032;-65
2021/07/27 06:18:33;;;;;;;29.13;19.15;;;;;;;17.51;76.68;101158.81;5055395;28;20028;-67
2021/07/27 06:20:59;;;;;;;27.27;18.38;;;;;;;17.68;76.90;101166.50;5055494;28;20085;-68
2021/07/27 06:23:25;;;;;;;28.45;17.40;;;;;;;17.99;75.32;101166.22;5055404;28;20108;-64
2021/07/27 06:25:50;;;;;;;26.20;16.42;;;;;;;18.24;74.36;101167.16;5055522;28;20056;-66
2021/07/27 06:28:16;;;;;;;28.42;16.38;;;;;;;18.34;73.70;101158.31;5049842;28;20025;-69
2021/07/27 06:30:41;;;;;;;25.58;16.80;;;;;;;18.27;74.02;101161.56;5025659;28;20152;-73
2021/07/27 06:33:06;;;;;;;24.60;15.77;;;;;;;18.44;73.13;101158.50;5036077;28;20494;-73
2021/07/27 06:35:31;;;;;;;22.80;15.48;;;;;;;18.49;73.16;101161.72;5040780;28;20082;-73
2021/07/27 06:37:57;;;;;;;25.45;15.98;;;;;;;18.48;73.66;101168.03;5055507;28;20021;-72
2021/07/27 06:40:22;;;;;;;27.33;15.55;;;;;;;18.44;73.28;101169.25;5055306;28;20076;-73
2021/07/27 06:42:48;;;;;;;28.58;15.05;;;;;;;18.62;73.06;101174.19;5055009;28;20509;-73
2021/07/27 06:45:14;;;;;;;23.10;14.68;;;;;;;18.83;72.60;101167.25;5056047;28;20104;-73
2021/07/27 06:47:39;;;;;;;20.77;14.18;;;;;;;19.08;71.59;101167.25;5072071;28;20102;-70
2021/07/27 06:50:05;;;;;;;21.83;13.90;;;;;;;19.21;71.24;101170.75;5074697;28;20025;-73
2021/07/27 06:52:30;;;;;;;22.67;14.20;;;;;;;19.23;71.43;101176.00;5074693;28;20028;-69
2021/07/27 06:54:55;;;;;;;25.38;14.05;;;;;;;19.25;71.61;101176.75;5075041;28;20028;-70
2021/07/27 06:57:20;;;;;;;23.75;14.55;;;;;;;19.25;71.37;101177.59;5074265;28;20033;-71
2021/07/27 06:59:46;;;;;;;20.48;14.27;;;;;;;19.24;71.60;101189.28;5075076;28;20477;-74
2021/07/27 07:02:11;;;;;;;25.05;14.90;;;;;;;19.12;72.36;101171.44;5074379;28;20033;-72
2021/07/27 07:04:36;;;;;;;22.15;15.65;;;;;;;19.06;71.97;101185.34;5074500;28;20110;-73
2021/07/27 07:07:02;;;;;;;21.42;14.90;;;;;;;18.96;72.58;101186.03;5074753;28;20120;-73
2021/07/27 07:09:27;;;;;;;22.63;15.05;;;;;;;18.97;74.00;101181.50;5074742;28;20034;-71
2021/07/27 07:11:52;;;;;;;24.15;15.27;;;;;;;18.94;73.15;101179.03;5073012;28;20036;-71
2021/07/27 07:14:18;;;;;;;22.60;13.65;;;;;;;19.13;72.78;101174.00;5074796;28;20393;-72
2021/07/27 07:16:43;;;;;;;22.80;15.70;;;;;;;19.20;73.62;101184.28;5074569;28;20031;-69
2021/07/27 07:19:09;;;;;;;26.08;14.60;;;;;;;19.19;72.78;101175.34;5074465;28;20029;-66
2021/07/27 07:21:34;;;;;;;22.60;14.60;;;;;;;19.27;72.71;101188.19;5073975;28;20059;-69
2021/07/27 07:23:59;;;;;;;22.80;14.40;;;;;;;19.27;73.04;101180.13;5074534;28;20061;-68
2021/07/27 07:26:25;;;;;;;20.80;13.95;;;;;;;19.13;73.07;101191.94;5074024;28;20056;-71
2021/07/27 07:28:50;;;;;;;22.83;14.27;;;;;;;19.05;73.77;101184.44;5073766;28;20020;-70
2021/07/27 07:31:16;;;;;;;25.50;15.73;;;;;;;19.05;73.88;101192.50;5074099;28;20021;-70
2021/07/27 07:33:43;;;;;;;25.23;15.55;;;;;;;18.94;73.89;101187.97;5073925;28;20028;-71
2021/07/27 07:36:13;;;;;;;25.08;16.20;;;;;;;18.85;74.96;101183.25;5076750;28;20025;-71
2021/07/27 07:38:39;;;;;;;20.88;15.48;;;;;;;18.92;74.99;101183.69;5054171;28;20025;-72
2021/07/27 07:41:09;;;;;;;27.25;16.58;;;;;;;19.05;74.75;101186.28;5072565;28;20043;-67
2021/07/27 07:43:35;;;;;;;23.77;17.30;;;;;;;18.99;74.58;101180.41;5073930;28;20592;-72
2021/07/27 07:46:00;;;;;;;25.67;17.00;;;;;;;19.03;74.53;101188.22;5071095;28;20131;-71
2021/07/27 07:48:26;;;;;;;24.70;16.73;;;;;;;19.11;74.63;101185.84;5074345;28;20025;-70
2021/07/27 07:50:52;;;;;;;24.90;17.33;;;;;;;19.12;74.20;101187.56;5073244;28;20115;-71
2021/07/27 07:53:17;;;;;;;23.48;17.27;;;;;;;19.19;74.25;101186.09;5054258;28;20114;-71
2021/07/27 07:55:42;;;;;;;26.30;17.02;;;;;;;19.23;74.41;101184.88;5062415;28;20088;-72
2021/07/27 07:58:08;;;;;;;27.60;15.82;;;;;;;19.28;74.14;101176.50;5050752;28;20037;-71
2021/07/27 08:00:33;;;;;;;26.20;16.88;;;;;;;19.27;74.41;101183.69;5064925;28;20100;-72
2021/07/27 08:03:02;;;;;;;28.40;16.55;;;;;;;19.27;75.01;101181.00;5072277;28;20024;-68
2021/07/27 08:05:28;;;;;;;25.63;16.10;;;;;;;19.45;73.77;101175.19;5073584;28;20032;-68
2021/07/27 08:07:53;;;;;;;30.17;17.25;;;;;;;19.42;73.01;101180.81;5073014;28;20023;-72
2021/07/27 08:10:19;;;;;;;24.45;17.27;;;;;;;19.39;73.93;101175.69;5073555;28;20032;-72
2021/07/27 08:12:47;;;;;;;33.78;17.45;;;;;;;19.30;73.81;101185.28;5073727;28;20363;-71
2021/07/27 08:15:14;;;;;;;28.90;19.90;;;;;;;19.20;73.44;101187.81;5074147;28;20025;-71
2021/07/27 08:17:39;;;;;;;26.55;19.10;;;;;;;19.14;74.35;101188.28;5073964;28;20029;-73
2021/07/27 08:20:05;;;;;;;28.58;18.25;;;;;;;19.16;75.21;101189.88;5072357;28;20116;-72
2021/07/27 08:22:30;;;;;;;30.50;19.52;;;;;;;19.19;74.28;101183.41;5072705;28;20032;-70
2021/07/27 08:24:56;;;;;;;32.50;19.33;;;;;;;19.25;74.28;101174.91;5070748;28;20013;-70
2021/07/27 08:27:21;;;;;;;29.63;19.80;;;;;;;19.32;73.91;101178.84;5065443;28;20113;-71
2021/07/27 08:29:46;;;;;;;27.95;19.33;;;;;;;19.54;74.02;101179.88;5066405;28;20424;-72
2021/07/27 08:32:12;;;;;;;26.55;17.95;;;;;;;19.72;73.22;101177.56;5073218;28;20028;-70
2021/07/27 08:34:38;;;;;;;25.20;17.77;;;;;;;19.96;72.08;101179.31;5072658;28;20373;-71
2021/07/27 08:37:04;;;;;;;25.02;17.90;;;;;;;20.02;71.13;101183.38;5073301;28;20112;-72
2021/07/27 08:39:30;;;;;;;27.58;18.63;;;;;;;19.94;72.42;101186.66;5072832;28;20029;-71
2021/07/27 08:41:59;;;;;;;27.80;18.50;;;;;;;19.78;72.65;101185.16;5073000;28;20040;-69
2021/07/27 08:44:28;;;;;;;29.17;18.25;;;;;;;19.70;72.57;101184.03;5072548;28;20474;-69
2021/07/27 08:46:54;;;;;;;26.02;18.10;;;;;;;19.57;73.18;101192.19;5068993;28;20067;-70
2021/07/27 08:49:21;;;;;;;29.73;18.95;;;;;;;19.34;74.14;101192.13;5067182;28;20093;-71
2021/07/27 08:51:46;;;;;;;25.88;18.13;;;;;;;19.35;74.85;101191.16;5072642;28;20027;-71
2021/07/27 08:54:13;;;;;;;30.17;17.17;;;;;;;19.39;74.16;101189.97;5071773;28;20037;-69
2021/07/27 08:56:50;;;;;;;26.42;17.15;;;;;;;19.50;74.32;101191.78;5072348;28;20017;-71
2021/07/27 08:59:16;;;;;;;29.77;18.27;;;;;;;19.51;73.86;101193.53;5058135;28;20051;-71
2021/07/27 09:01:41;;;;;;;26.40;17.10;;;;;;;19.48;74.07;101201.81;5072527;28;20466;-72
2021/07/27 09:04:07;;;;;;;27.33;17.52;;;;;;;19.47;73.45;101198.25;5072413;28;20017;-71
2021/07/27 09:06:32;;;;;;;25.95;17.17;;;;;;;19.48;74.28;101193.78;5071463;28;20462;-71
2021/07/27 09:09:09;;;;;;;30.27;18.10;;;;;;;19.54;74.09;101203.16;5072471;28;20036;-68
2021/07/27 09:11:48;;;;;;;30.75;17.98;;;;;;;19.58;73.71;101194.75;5072487;28;20021;-69
2021/07/27 09:14:16;;;;;;;30.10;18.05;;;;;;;19.51;73.49;101198.88;5070998;28;20020;-72
2021/07/27 09:16:49;;;;;;;28.60;18.05;;;;;;;19.49;74.04;101195.50;5073059;28;20032;-69
2021/07/27 09:19:15;;;;;;;33.30;21.65;;;;;;;19.46;74.26;101204.63;5073193;28;20063;-72
2021/07/27 09:21:42;;;;;;;34.40;21.83;;;;;;;19.37;75.27;101199.94;5075883;28;20021;-70
2021/07/27 09:24:29;;;;;;;35.95;21.02;;;;;;;19.27;76.00;101207.00;5080310;28;20072;-71
2021/07/27 09:27:00;;;;;;;30.63;20.65;;;;;;;19.19;76.36;101207.56;5074468;28;20090;-71
2021/07/27 09:29:29;;;;;;;30.17;19.48;;;;;;;19.10;76.74;101216.31;5072399;28;20036;-72
2021/07/27 09:31:57;;;;;;;33.92;21.45;;;;;;;18.82;80.37;101216.53;5072317;28;20024;-69
2021/07/27 09:34:23;;;;;;;27.50;20.15;;;;;;;18.64;82.09;101226.78;5071870;28;20383;-71
2021/07/27 09:37:05;;;;;;;27.23;19.95;;;;;;;18.45;84.13;101229.94;5055142;28;20021;-73
2021/07/27 09:39:31;;;;;;;;;;;;;;;18.15;84.58;101223.13;5057697;28;20020;-72
2021/07/27 09:42:00;;;;;;;28.20;19.73;;;;;;;18.17;85.14;101231.03;5071837;28;20297;-70
2021/07/27 09:44:28;;;;;;;34.45;19.73;;;;;;;18.09;86.10;101238.78;5072478;28;20107;-73
2021/07/27 09:46:54;;;;;;;24.17;17.23;;;;;;;18.10;85.32;101227.09;5072125;28;20115;-73
2021/07/27 09:49:21;;;;;;;26.88;17.13;;;;;;;18.37;85.26;101243.03;5071472;28;20078;-69
2021/07/27 09:51:49;;;;;;;32.50;18.58;;;;;;;18.72;84.37;101244.13;5071469;28;20467;-72
2021/07/27 09:54:14;;;;;;;22.55;15.40;;;;;;;19.01;83.18;101254.59;5071584;28;20066;-72
2021/07/27 09:56:40;;;;;;;19.27;11.98;;;;;;;19.12;79.62;101238.56;5072028;28;20024;-72
2021/07/27 09:59:08;;;;;;;16.42;10.48;;;;;;;19.15;80.23;101243.69;5072443;28;20120;-73
2021/07/27 10:01:34;;;;;;;15.80;9.70;;;;;;;19.30;78.59;101245.22;5071952;28;20055;-71
2021/07/27 10:04:01;;;;;;;19.38;7.78;;;;;;;19.81;76.91;101240.50;5072141;28;20367;-73
2021/07/27 10:06:30;;;;;;;16.88;7.13;;;;;;;20.01;74.70;101244.31;5071173;28;20493;-71
2021/07/27 10:08:57;;;;;;;19.88;6.70;;;;;;;20.16;73.77;101225.28;5072293;28;20028;-68
2021/07/27 10:11:41;;;;;;;18.35;6.30;;;;;;;19.99;73.30;101227.47;5071977;28;20020;-71
2021/07/27 10:14:14;;;;;;;20.17;6.55;;;;;;;19.92;74.48;101234.31;5071600;28;20051;-71
2021/07/27 10:16:40;;;;;;;16.83;5.82;;;;;;;19.93;74.53;101233.34;5071942;28;20031;-72
2021/07/27 10:19:17;;;;;;;19.77;6.68;;;;;;;19.97;74.19;101235.66;5071728;28;20356;-68
2021/07/27 10:21:43;;;;;;;19.42;6.13;;;;;;;19.95;74.12;101239.44;5071493;28;20035;-71
2021/07/27 10:24:23;;;;;;;17.05;5.90;;;;;;;19.66;74.02;101247.91;5072223;28;20025;-72
2021/07/27 10:26:49;;;;;;;15.17;5.00;;;;;;;19.51;73.88;101249.94;5071871;28;20029;-71
2021/07/27 10:29:28;;;;;;;14.80;5.40;;;;;;;19.28;74.73;101254.34;5071681;28;20282;-72
2021/07/27 10:31:54;;;;;;;18.20;5.72;;;;;;;19.08;76.67;101239.72;5071517;28;20036;-72
2021/07/27 10:34:19;;;;;;;15.18;5.35;;;;;;;18.97;76.71;101246.75;5071682;28;20029;-71
2021/07/27 10:36:47;;;;;;;14.55;4.80;;;;;;;18.85;78.41;101239.59;5071769;28;20025;-70
2021/07/27 10:39:19;;;;;;;13.43;4.25;;;;;;;18.63;77.25;101232.25;5071979;28;20032;-71
2021/07/27 10:41:50;;;;;;;10.80;4.57;;;;;;;18.45;78.64;101229.94;5071160;28;20033;-69
2021/07/27 10:44:20;;;;;;;11.68;4.10;;;;;;;18.42;78.56;101230.16;5071563;28;20035;-68
2021/07/27 10:46:48;;;;;;;13.82;4.45;;;;;;;18.42;78.40;101232.00;5073477;28;20115;-72
2021/07/27 10:49:21;;;;;;;13.13;4.60;;;;;;;18.34;79.10;101224.50;5074863;28;20107;-72
2021/07/27 10:51:47;;;;;;;14.48;4.50;;;;;;;18.20;78.49;101216.56;5075300;28;20028;-69
2021/07/27 10:54:14;;;;;;;9.93;4.57;;;;;;;18.11;80.95;101220.78;5074413;28;20036;-72
2021/07/27 10:56:42;;;;;;;12.80;4.85;;;;;;;18.17;81.09;101209.59;5074530;28;20033;-71
2021/07/27 10:59:07;;;;;;;15.32;5.20;;;;;;;18.24;82.23;101212.72;5074095;28;20436;-68
2021/07/27 11:01:33;;;;;;;15.30;5.20;;;;;;;18.57;81.42;101221.97;5073789;28;20145;-71
2021/07/27 11:04:09;;;;;;;14.10;4.93;;;;;;;18.90;79.86;101212.44;5073595;28;20031;-70
2021/07/27 11:06:35;;;;;;;16.08;5.00;;;;;;;19.18;77.95;101216.59;5071822;28;20029;-67
2021/07/27 11:09:00;;;;;;;15.50;4.80;;;;;;;19.54;76.28;101208.53;5074101;28;20032;-68
2021/07/27 11:11:26;;;;;;;11.40;4.70;;;;;;;19.89;74.66;101205.84;5071862;28;20035;-67
2021/07/27 11:13:53;;;;;;;14.10;4.15;;;;;;;20.07;73.57;101208.06;5073722;28;20036;-71
2021/07/27 11:16:18;;;;;;;14.55;4.43;;;;;;;20.30;72.47;101206.22;5074414;28;20020;-68
2021/07/27 11:18:44;;;;;;;10.85;4.53;;;;;;;20.57;71.61;101205.81;5073288;28;20024;-70
2021/07/27 11:21:10;;;;;;;13.18;4.07;;;;;;;20.78;69.77;101205.91;5073350;28;20035;-70
2021/07/27 11:23:36;;;;;;;10.52;4.30;;;;;;;20.79;69.72;101209.44;5074744;28;20028;-70